createdAt,value
2023-05-20T00:01:43.509Z,103032.66
2023-05-20T00:04:12.282Z,103036.16
2023-05-20T00:06:42.258Z,103048.56
2023-05-20T00:09:10.966Z,103033.13
2023-05-20T00:11:39.189Z,103032.13
2023-05-20T00:14:07.792Z,103040.97
2023-05-20T00:16:36.824Z,103046.16
2023-05-20T00:19:05.116Z,103037.25
2023-05-20T00:21:34.181Z,103019.25
2023-05-20T00:24:03.785Z,103039.63
2023-05-20T00:26:32.165Z,103047.78
2023-05-20T00:29:01.787Z,103044.84
2023-05-20T00:31:29.928Z,103048.28
2023-05-20T00:33:58.474Z,103045.50
2023-05-20T00:36:27.648Z,103041.81
2023-05-20T00:38:56.147Z,103042.78
2023-05-20T00:41:26.499Z,103041.81
2023-05-20T00:43:56.442Z,103031.16
2023-05-20T00:46:25.454Z,103043.63
2023-05-20T00:48:54.411Z,103033.25
2023-05-20T00:51:23.254Z,103034.72
2023-05-20T00:53:51.902Z,103029.22
2023-05-20T00:56:21.637Z,103041.75
2023-05-20T00:58:52.289Z,103048.69
2023-05-20T01:01:20.533Z,103050.34
2023-05-20T01:03:49.229Z,103043.97
2023-05-20T01:06:17.916Z,103051.25
2023-05-20T01:08:46.440Z,103039.88
2023-05-20T01:11:19.699Z,103052.28
2023-05-20T01:13:53.186Z,103044.53
2023-05-20T01:16:24.823Z,103041.47
2023-05-20T01:18:57.515Z,103025.31
2023-05-20T01:21:26.305Z,103038.25
2023-05-20T01:23:56.336Z,103011.78
2023-05-20T01:26:27.449Z,103027.59
2023-05-20T01:28:58.222Z,103030.38
2023-05-20T01:31:32.411Z,103032.91
2023-05-20T01:34:02.220Z,103014.00
2023-05-20T01:36:31.522Z,103035.66
2023-05-20T01:39:03.990Z,103046.25
2023-05-20T01:41:35.060Z,103043.28
2023-05-20T01:44:04.073Z,103042.72
2023-05-20T01:46:34.726Z,103041.88
2023-05-20T01:49:03.322Z,103044.38
2023-05-20T01:51:35.691Z,103053.41
2023-05-20T01:54:05.476Z,103053.50
2023-05-20T01:56:33.784Z,103052.72
2023-05-20T01:59:02.832Z,103052.31
2023-05-20T02:01:31.174Z,103047.84
2023-05-20T02:03:59.616Z,103054.78
2023-05-20T02:06:27.879Z,103054.81
2023-05-20T02:08:56.356Z,103054.59
2023-05-20T02:11:27.386Z,103057.97
2023-05-20T02:13:55.648Z,103057.91
2023-05-20T02:16:24.572Z,103055.47
2023-05-20T02:18:53.728Z,103058.38
2023-05-20T02:21:22.699Z,103058.53
2023-05-20T02:23:50.877Z,103048.00
2023-05-20T02:26:20.774Z,103048.28
2023-05-20T02:28:51.060Z,103055.13
2023-05-20T02:31:19.466Z,103053.56
2023-05-20T02:33:48.017Z,103053.38
2023-05-20T02:36:17.946Z,103051.50
2023-05-20T02:38:46.757Z,103047.19
2023-05-20T02:41:15.471Z,103053.22
2023-05-20T02:43:45.238Z,103062.09
2023-05-20T02:46:15.915Z,103060.38
2023-05-20T02:48:44.175Z,103056.84
2023-05-20T02:51:12.520Z,103051.69
2023-05-20T02:53:40.846Z,103054.34
2023-05-20T02:56:09.908Z,103056.53
2023-05-20T02:58:38.281Z,103055.41
2023-05-20T03:01:07.257Z,103060.56
2023-05-20T03:03:38.279Z,103063.75
2023-05-20T03:06:06.572Z,103064.34
2023-05-20T03:08:35.563Z,103046.44
2023-05-20T03:11:04.976Z,103064.28
2023-05-20T03:13:35.378Z,103065.81
2023-05-20T03:16:03.892Z,103069.09
2023-05-20T03:18:36.176Z,103070.94
2023-05-20T03:21:04.517Z,103070.75
2023-05-20T03:23:32.672Z,103073.00
2023-05-20T03:26:01.024Z,103053.25
2023-05-20T03:28:32.231Z,103074.81
2023-05-20T03:31:00.636Z,103070.34
2023-05-20T03:33:29.445Z,103073.22
2023-05-20T03:35:59.619Z,103078.31
2023-05-20T03:38:28.530Z,103069.47
2023-05-20T03:40:56.955Z,103049.81
2023-05-20T03:43:25.585Z,103073.22
2023-05-20T03:45:53.798Z,103069.38
2023-05-20T03:48:22.406Z,103063.91
2023-05-20T03:50:51.354Z,103057.97
2023-05-20T03:56:03.187Z,103060.13
2023-05-20T03:58:31.649Z,103073.00
2023-05-20T04:01:00.181Z,103069.25
2023-05-20T04:03:29.550Z,103072.56
2023-05-20T04:05:57.705Z,103074.66
2023-05-20T04:08:27.620Z,103067.81
2023-05-20T04:10:57.968Z,103067.66
2023-05-20T04:13:27.022Z,103046.06
2023-05-20T04:15:55.490Z,103064.25
2023-05-20T04:18:24.055Z,103070.56
2023-05-20T04:20:55.929Z,103067.41
2023-05-20T04:23:24.957Z,103064.75
2023-05-20T04:25:55.266Z,103061.44
2023-05-20T04:28:28.407Z,103042.69
2023-05-20T04:31:03.149Z,103056.31
2023-05-20T04:33:33.173Z,103061.63
2023-05-20T04:36:03.230Z,103066.72
2023-05-20T04:38:33.138Z,103069.16
2023-05-20T04:41:04.549Z,103069.06
2023-05-20T04:43:33.852Z,103068.91
2023-05-20T04:46:06.263Z,103062.72
2023-05-20T04:48:34.990Z,103077.00
2023-05-20T04:51:06.632Z,103078.81
2023-05-20T04:53:36.298Z,103074.59
2023-05-20T04:56:06.812Z,103065.25
2023-05-20T04:58:35.726Z,103060.41
2023-05-20T05:01:04.402Z,103069.91
2023-05-20T05:03:35.159Z,103044.22
2023-05-20T05:06:05.592Z,103065.78
2023-05-20T05:08:33.878Z,103057.06
2023-05-20T05:11:03.321Z,103055.47
2023-05-20T05:13:32.881Z,103058.88
2023-05-20T05:16:01.562Z,103033.91
2023-05-20T05:18:29.915Z,103062.66
2023-05-20T05:21:02.264Z,103062.56
2023-05-20T05:23:31.104Z,103064.63
2023-05-20T05:25:59.759Z,103065.59
2023-05-20T05:28:28.137Z,103057.59
2023-05-20T05:30:58.407Z,103066.63
2023-05-20T05:33:26.958Z,103063.06
2023-05-20T05:35:56.992Z,103063.22
2023-05-20T05:38:25.550Z,103067.78
2023-05-20T05:40:54.387Z,103054.53
2023-05-20T05:43:22.619Z,103056.38
2023-05-20T05:45:51.124Z,103058.28
2023-05-20T05:48:20.778Z,103058.47
2023-05-20T05:50:49.325Z,103063.81
2023-05-20T05:53:17.924Z,103060.53
2023-05-20T05:55:48.209Z,103058.91
2023-05-20T05:58:17.002Z,103060.72
2023-05-20T06:00:47.787Z,103055.25
2023-05-20T06:03:16.290Z,103062.53
2023-05-20T06:05:48.721Z,103041.31
2023-05-20T06:08:17.248Z,103059.25
2023-05-20T06:10:50.121Z,103057.59
2023-05-20T06:13:18.924Z,103061.34
2023-05-20T06:15:47.694Z,103060.53
2023-05-20T06:18:16.572Z,103057.13
2023-05-20T06:20:44.729Z,103059.94
2023-05-20T06:23:14.342Z,103054.63
2023-05-20T06:25:42.675Z,103047.78
2023-05-20T06:28:10.825Z,103050.53
2023-05-20T06:30:39.151Z,103053.25
2023-05-20T06:33:07.554Z,103050.81
2023-05-20T06:35:36.355Z,103052.66
2023-05-20T06:38:04.829Z,103039.31
2023-05-20T06:40:34.627Z,103053.72
2023-05-20T06:43:02.787Z,103044.84
2023-05-20T06:45:30.958Z,103038.72
2023-05-20T06:48:00.733Z,103030.81
2023-05-20T06:50:29.763Z,103024.63
2023-05-20T06:53:00.461Z,103031.81
2023-05-20T06:55:28.889Z,103030.94
2023-05-20T06:57:58.838Z,103030.13
2023-05-20T07:00:27.149Z,103034.59
2023-05-20T07:03:01.018Z,103034.59
2023-05-20T07:05:29.882Z,103018.63
2023-05-20T07:07:57.997Z,103021.28
2023-05-20T07:10:26.495Z,103020.44
2023-05-20T07:12:54.641Z,103027.53
2023-05-20T07:15:24.359Z,102993.78
2023-05-20T07:17:53.478Z,103013.31
2023-05-20T07:20:21.882Z,103018.66
2023-05-20T07:22:51.159Z,103013.31
2023-05-20T07:25:20.464Z,103013.34
2023-05-20T07:27:48.664Z,103015.09
2023-05-20T07:30:16.804Z,102999.97
2023-05-20T07:32:46.444Z,103003.53
2023-05-20T07:35:14.891Z,103011.47
2023-05-20T07:37:43.166Z,102986.56
2023-05-20T07:40:12.080Z,103002.44
2023-05-20T07:42:40.415Z,103000.44
2023-05-20T07:45:09.795Z,103002.44
2023-05-20T07:47:38.001Z,102985.25
2023-05-20T07:50:08.806Z,102977.72
2023-05-20T07:52:54.581Z,102979.28
2023-05-20T07:55:25.473Z,102983.59
2023-05-20T07:57:53.886Z,102990.72
2023-05-20T08:00:23.053Z,102977.66
2023-05-20T08:02:51.897Z,102984.84
2023-05-20T08:05:22.887Z,102984.03
2023-05-20T08:07:51.017Z,102978.13
2023-05-20T08:10:19.508Z,102958.41
2023-05-20T08:12:48.334Z,102969.06
2023-05-20T08:15:16.963Z,102951.66
2023-05-20T08:17:45.336Z,102960.16
2023-05-20T08:20:14.806Z,102960.44
2023-05-20T08:22:49.048Z,102961.19
2023-05-20T08:25:17.313Z,102957.69
2023-05-20T08:27:47.888Z,102962.44
2023-05-20T08:30:16.338Z,102963.19
2023-05-20T08:32:44.965Z,102961.78
2023-05-20T08:35:13.193Z,102954.66
2023-05-20T08:37:41.587Z,102968.44
2023-05-20T08:40:13.576Z,102959.03
2023-05-20T08:42:45.125Z,102954.41
2023-05-20T08:45:14.368Z,102957.13
2023-05-20T08:47:44.163Z,102954.53
2023-05-20T08:50:14.416Z,102958.81
2023-05-20T08:52:45.983Z,102948.75
2023-05-20T08:55:23.106Z,102956.09
2023-05-20T08:57:51.770Z,102950.47
2023-05-20T09:00:20.973Z,102946.78
2023-05-20T09:02:49.581Z,102948.97
2023-05-20T09:05:19.292Z,102934.75
2023-05-20T09:07:49.844Z,102948.69
2023-05-20T09:10:22.168Z,102946.00
2023-05-20T09:12:51.224Z,102941.25
2023-05-20T09:15:20.034Z,102940.56
2023-05-20T09:17:51.737Z,102931.19
2023-05-20T09:20:23.988Z,102930.13
2023-05-20T09:22:53.434Z,102931.19
2023-05-20T09:25:24.527Z,102931.91
2023-05-20T09:27:52.799Z,102933.31
2023-05-20T09:30:21.345Z,102926.78
2023-05-20T09:32:54.596Z,102931.72
2023-05-20T09:35:23.705Z,102924.31
2023-05-20T09:37:55.274Z,102933.63
2023-05-20T09:40:28.631Z,102924.34
2023-05-20T09:43:01.378Z,102924.00
2023-05-20T09:45:32.762Z,102921.91
2023-05-20T09:48:04.042Z,102917.50
2023-05-20T09:50:35.812Z,102911.16
2023-05-20T09:53:05.435Z,102907.06
2023-05-20T09:55:35.917Z,102907.94
2023-05-20T09:58:04.736Z,102914.13
2023-05-20T10:00:33.164Z,102915.78
2023-05-20T10:03:05.773Z,102924.34
2023-05-20T10:05:38.913Z,102919.47
2023-05-20T10:08:31.609Z,102918.13
2023-05-20T10:11:13.069Z,102914.59
2023-05-20T10:14:11.579Z,102911.53
2023-05-20T10:16:47.211Z,102913.50
2023-05-20T10:19:29.164Z,102924.31
2023-05-20T10:22:02.833Z,102920.41
2023-05-20T10:24:33.613Z,102922.88
2023-05-20T10:27:06.475Z,102919.47
2023-05-20T10:29:45.185Z,102923.72
2023-05-20T10:32:13.353Z,102916.00
2023-05-20T10:34:49.166Z,102911.34
2023-05-20T10:37:28.247Z,102907.72
2023-05-20T10:40:08.405Z,102911.16
2023-05-20T10:42:38.210Z,102912.91
2023-05-20T10:45:07.654Z,102914.81
2023-05-20T10:47:36.686Z,102909.22
2023-05-20T10:50:06.574Z,102891.72
2023-05-20T10:52:35.749Z,102891.66
2023-05-20T10:55:05.804Z,102914.75
2023-05-20T10:57:35.610Z,102908.22
2023-05-20T11:00:06.942Z,102889.56
2023-05-20T11:02:36.485Z,102895.44
2023-05-20T11:05:06.797Z,102898.50
2023-05-20T11:07:35.448Z,102890.53
2023-05-20T11:10:04.092Z,102896.44
2023-05-20T11:12:34.519Z,102910.19
2023-05-20T11:15:04.848Z,102901.00
2023-05-20T11:17:33.458Z,102906.78
2023-05-20T11:20:05.863Z,102893.41
2023-05-20T11:22:34.354Z,102899.25
2023-05-20T11:25:07.658Z,102898.81
2023-05-20T11:27:36.479Z,102898.28
2023-05-20T11:30:08.434Z,102885.31
2023-05-20T11:32:36.748Z,102889.50
2023-05-20T11:35:05.528Z,102897.25
2023-05-20T11:37:33.781Z,102883.44
2023-05-20T11:40:09.806Z,102879.72
2023-05-20T11:42:38.960Z,102873.38
2023-05-20T11:45:15.674Z,102874.91
2023-05-20T11:47:43.843Z,102875.72
2023-05-20T11:50:18.413Z,102876.69
2023-05-20T11:52:47.132Z,102868.75
2023-05-20T11:55:18.876Z,102872.00
2023-05-20T11:57:47.449Z,102858.88
2023-05-20T12:00:17.710Z,102863.06
2023-05-20T12:02:46.441Z,102857.72
2023-05-20T12:05:15.253Z,102849.25
2023-05-20T12:07:43.541Z,102823.63
2023-05-20T12:10:13.813Z,102850.25
2023-05-20T12:12:42.257Z,102851.88
2023-05-20T12:15:11.639Z,102844.25
2023-05-20T12:17:49.014Z,102849.16
2023-05-20T12:20:19.859Z,102850.50
2023-05-20T12:22:48.484Z,102846.84
2023-05-20T12:25:19.584Z,102850.63
2023-05-20T12:27:50.039Z,102859.47
2023-05-20T12:30:20.081Z,102854.53
2023-05-20T12:32:51.989Z,102845.66
2023-05-20T12:35:26.414Z,102846.75
2023-05-20T12:37:55.014Z,102845.56
2023-05-20T12:40:23.450Z,102842.63
2023-05-20T12:42:52.256Z,102844.31
2023-05-20T12:45:21.127Z,102851.69
2023-05-20T12:47:51.502Z,102834.25
2023-05-20T12:50:19.992Z,102833.91
2023-05-20T12:52:48.333Z,102813.41
2023-05-20T12:55:16.849Z,102832.53
2023-05-20T12:57:46.238Z,102838.09
2023-05-20T13:00:15.587Z,102834.34
2023-05-20T13:02:44.472Z,102834.25
2023-05-20T13:05:15.169Z,102826.81
2023-05-20T13:07:44.304Z,102835.44
2023-05-20T13:10:12.889Z,102839.22
2023-05-20T13:12:46.143Z,102814.47
2023-05-20T13:15:14.777Z,102822.16
2023-05-20T13:17:43.825Z,102814.53
2023-05-20T13:20:14.918Z,102815.19
2023-05-20T13:22:43.348Z,102809.97
2023-05-20T13:25:12.117Z,102808.94
2023-05-20T13:27:40.644Z,102817.81
2023-05-20T13:30:10.181Z,102805.94
2023-05-20T13:32:38.384Z,102806.22
2023-05-20T13:35:07.619Z,102802.94
2023-05-20T13:37:37.745Z,102794.00
2023-05-20T13:40:06.803Z,102800.34
2023-05-20T13:42:35.318Z,102795.16
2023-05-20T13:45:03.704Z,102777.56
2023-05-20T13:47:34.968Z,102777.78
2023-05-20T13:50:04.290Z,102768.75
2023-05-20T13:52:32.816Z,102771.53
2023-05-20T13:55:02.928Z,102778.31
2023-05-20T13:57:31.233Z,102767.28
2023-05-20T13:59:59.680Z,102770.91
2023-05-20T14:02:27.927Z,102764.69
2023-05-20T14:04:56.349Z,102764.94
2023-05-20T14:07:24.825Z,102761.38
2023-05-20T14:09:53.033Z,102763.66
2023-05-20T14:12:24.821Z,102749.13
2023-05-20T14:14:53.303Z,102756.31
2023-05-20T14:17:22.751Z,102743.56
2023-05-20T14:19:51.088Z,102750.13
2023-05-20T14:22:20.121Z,102743.75
2023-05-20T14:24:48.720Z,102737.50
2023-05-20T14:27:19.404Z,102741.22
2023-05-20T14:29:49.074Z,102745.69
2023-05-20T14:32:17.399Z,102745.97
2023-05-20T14:34:46.343Z,102748.78
2023-05-20T14:37:15.695Z,102741.16
2023-05-20T14:39:43.806Z,102745.50
2023-05-20T14:42:13.357Z,102742.56
2023-05-20T14:44:41.781Z,102737.22
2023-05-20T14:47:11.866Z,102731.59
2023-05-20T14:49:41.818Z,102730.94
2023-05-20T14:52:10.411Z,102714.53
2023-05-20T14:54:38.899Z,102728.84
2023-05-20T14:57:07.874Z,102729.34
2023-05-20T14:59:36.197Z,102724.97
2023-05-20T15:02:05.955Z,102719.25
2023-05-20T15:04:36.392Z,102722.66
2023-05-20T15:07:04.758Z,102723.31
2023-05-20T15:09:33.418Z,102710.72
2023-05-20T15:12:01.965Z,102711.91
2023-05-20T15:14:30.605Z,102716.19
2023-05-20T15:16:58.972Z,102727.94
2023-05-20T15:19:27.400Z,102717.22
2023-05-20T15:21:57.060Z,102719.41
2023-05-20T15:24:25.455Z,102718.44
2023-05-20T15:26:54.630Z,102710.59
2023-05-20T15:29:22.959Z,102713.59
2023-05-20T15:31:51.962Z,102712.19
2023-05-20T15:34:20.195Z,102712.72
2023-05-20T15:36:48.560Z,102705.88
2023-05-20T15:39:18.360Z,102700.97
2023-05-20T15:41:48.253Z,102696.06
2023-05-20T15:44:16.564Z,102696.84
2023-05-20T15:46:45.113Z,102696.22
2023-05-20T15:49:13.882Z,102687.28
2023-05-20T15:51:46.641Z,102667.91
2023-05-20T15:54:25.431Z,102686.34
2023-05-20T15:56:54.060Z,102688.97
2023-05-20T15:59:22.667Z,102683.47
2023-05-20T16:01:51.422Z,102689.97
2023-05-20T16:04:20.831Z,102682.63
2023-05-20T16:06:49.267Z,102683.47
2023-05-20T16:09:17.515Z,102674.59
2023-05-20T16:11:47.867Z,102675.66
2023-05-20T16:14:15.972Z,102670.78
2023-05-20T16:16:44.555Z,102655.38
2023-05-20T16:19:13.310Z,102655.47
2023-05-20T16:21:41.793Z,102649.56
2023-05-20T16:24:10.262Z,102650.69
2023-05-20T16:26:38.557Z,102650.19
2023-05-20T16:29:08.270Z,102643.31
2023-05-20T16:31:38.309Z,102644.34
2023-05-20T16:34:06.951Z,102635.25
2023-05-20T16:36:35.552Z,102642.78
2023-05-20T16:39:03.932Z,102647.75
2023-05-20T16:41:36.539Z,102640.13
2023-05-20T16:44:05.261Z,102635.38
2023-05-20T16:46:35.232Z,102628.59
2023-05-20T16:49:03.602Z,102631.88
2023-05-20T16:51:32.444Z,102631.56
2023-05-20T16:54:00.858Z,102634.22
2023-05-20T16:56:29.614Z,102638.91
2023-05-20T16:58:58.041Z,102630.00
2023-05-20T17:01:26.648Z,102630.75
2023-05-20T17:03:56.738Z,102640.59
2023-05-20T17:06:25.420Z,102637.09
2023-05-20T17:08:53.549Z,102626.25
2023-05-20T17:11:22.855Z,102610.38
2023-05-20T17:13:51.264Z,102628.44
2023-05-20T17:16:19.483Z,102626.00
2023-05-20T17:18:48.396Z,102628.69
2023-05-20T17:21:20.627Z,102611.00
2023-05-20T17:23:51.233Z,102632.38
2023-05-20T17:26:19.823Z,102621.72
2023-05-20T17:28:48.126Z,102625.19
2023-05-20T17:31:18.254Z,102619.97
2023-05-20T17:33:46.747Z,102616.56
2023-05-20T17:36:16.398Z,102623.84
2023-05-20T17:38:46.039Z,102610.44
2023-05-20T17:41:14.760Z,102622.53
2023-05-20T17:43:43.030Z,102623.53
2023-05-20T17:46:11.859Z,102628.94
2023-05-20T17:48:40.728Z,102631.97
2023-05-20T17:51:09.479Z,102625.13
2023-05-20T17:53:38.124Z,102626.03
2023-05-20T17:56:08.491Z,102627.94
2023-05-20T17:58:36.710Z,102615.47
2023-05-20T18:01:05.002Z,102620.84
2023-05-20T18:03:33.162Z,102624.25
2023-05-20T18:06:02.179Z,102622.84
2023-05-20T18:08:30.709Z,102612.13
2023-05-20T18:10:59.403Z,102619.06
2023-05-20T18:13:29.517Z,102612.19
2023-05-20T18:15:57.912Z,102620.97
2023-05-20T18:18:26.188Z,102617.34
2023-05-20T18:20:54.820Z,102614.00
2023-05-20T18:23:23.105Z,102623.91
2023-05-20T18:25:51.368Z,102615.94
2023-05-20T18:28:19.641Z,102614.41
2023-05-20T18:30:50.461Z,102614.66
2023-05-20T18:33:18.604Z,102610.09
2023-05-20T18:35:46.817Z,102610.25
2023-05-20T18:38:15.063Z,102609.31
2023-05-20T18:40:43.591Z,102611.00
2023-05-20T18:43:12.069Z,102608.44
2023-05-20T18:45:41.300Z,102609.19
2023-05-20T18:48:15.757Z,102609.06
2023-05-20T18:50:48.963Z,102601.97
2023-05-20T18:53:18.903Z,102609.19
2023-05-20T18:55:48.038Z,102588.91
2023-05-20T18:58:16.647Z,102613.56
2023-05-20T19:00:45.070Z,102599.44
2023-05-20T19:03:14.980Z,102616.34
2023-05-20T19:05:43.873Z,102607.59
2023-05-20T19:08:12.378Z,102606.00
2023-05-20T19:10:41.692Z,102607.63
2023-05-20T19:13:10.212Z,102605.81
2023-05-20T19:15:38.467Z,102602.31
2023-05-20T19:18:06.732Z,102611.16
2023-05-20T19:20:36.657Z,102605.84
2023-05-20T19:23:04.972Z,102613.06
2023-05-20T19:25:33.513Z,102613.13
2023-05-20T19:28:05.237Z,102618.41
2023-05-20T19:30:34.053Z,102613.06
2023-05-20T19:33:04.237Z,102600.56
2023-05-20T19:35:32.974Z,102587.44
2023-05-20T19:38:05.082Z,102603.38
2023-05-20T19:40:33.248Z,102604.31
2023-05-20T19:43:01.386Z,102576.88
2023-05-20T19:45:29.987Z,102607.22
2023-05-20T19:47:58.555Z,102615.25
2023-05-20T19:50:26.691Z,102623.28
2023-05-20T19:52:55.380Z,102611.72
2023-05-20T19:55:25.531Z,102609.03
2023-05-20T19:57:53.662Z,102609.94
2023-05-20T20:00:22.105Z,102591.31
2023-05-20T20:02:50.470Z,102609.88
2023-05-20T20:05:23.061Z,102606.25
2023-05-20T20:07:52.348Z,102586.91
2023-05-20T20:10:20.642Z,102616.16
2023-05-20T20:12:50.520Z,102611.78
2023-05-20T20:15:20.612Z,102610.03
2023-05-20T20:17:52.377Z,102606.50
2023-05-20T20:20:21.133Z,102598.50
2023-05-20T20:22:50.061Z,102601.97
2023-05-20T20:25:18.732Z,102606.38
2023-05-20T20:27:48.741Z,102603.72
2023-05-20T20:30:18.752Z,102571.78
2023-05-20T20:32:48.599Z,102583.28
2023-05-20T20:35:17.234Z,102594.06
2023-05-20T20:37:45.580Z,102602.91
2023-05-20T20:40:14.273Z,102590.47
2023-05-20T20:42:45.053Z,102587.88
2023-05-20T20:45:13.645Z,102585.28
2023-05-20T20:47:44.755Z,102593.28
2023-05-20T20:50:13.064Z,102583.47
2023-05-20T20:52:42.961Z,102592.38
2023-05-20T20:55:12.009Z,102584.41
2023-05-20T20:57:42.281Z,102583.56
2023-05-20T21:00:16.836Z,102587.13
2023-05-20T21:02:46.821Z,102562.34
2023-05-20T21:05:16.986Z,102581.84
2023-05-20T21:07:50.094Z,102581.00
2023-05-20T21:10:18.689Z,102578.38
2023-05-20T21:12:46.905Z,102571.31
2023-05-20T21:15:15.493Z,102576.66
2023-05-20T21:17:43.759Z,102574.00
2023-05-20T21:20:15.283Z,102574.91
2023-05-20T21:22:43.918Z,102580.22
2023-05-20T21:25:13.428Z,102575.81
2023-05-20T21:27:42.334Z,102579.34
2023-05-20T21:30:12.108Z,102582.03
2023-05-20T21:32:40.456Z,102578.44
2023-05-20T21:35:10.114Z,102580.22
2023-05-20T21:37:39.866Z,102582.06
2023-05-20T21:40:09.239Z,102580.31
2023-05-20T21:42:38.377Z,102583.88
2023-05-20T21:45:07.807Z,102582.09
2023-05-20T21:47:36.175Z,102580.34
2023-05-20T21:50:08.156Z,102580.31
2023-05-20T21:52:36.497Z,102579.44
2023-05-20T21:55:07.139Z,102586.50
2023-05-20T21:57:35.715Z,102581.19
2023-05-20T22:00:05.611Z,102584.72
2023-05-20T22:02:35.230Z,102560.81
2023-05-20T22:05:04.637Z,102574.13
2023-05-20T22:07:33.524Z,102573.22
2023-05-20T22:10:02.786Z,102571.47
2023-05-20T22:12:36.004Z,102590.97
2023-05-20T22:15:04.481Z,102582.09
2023-05-20T22:17:34.161Z,102581.25
2023-05-20T22:20:07.377Z,102580.34
2023-05-20T22:22:36.406Z,102575.91
2023-05-20T22:25:05.020Z,102577.69
2023-05-20T22:27:35.304Z,102573.25
2023-05-20T22:30:06.342Z,102573.22
2023-05-20T22:32:34.920Z,102557.28
2023-05-20T22:35:03.264Z,102575.00
2023-05-20T22:37:31.876Z,102567.03
2023-05-20T22:40:00.102Z,102573.25
2023-05-20T22:42:28.506Z,102564.38
2023-05-20T22:44:58.978Z,102573.25
2023-05-20T22:47:27.332Z,102578.56
2023-05-20T22:49:57.455Z,102548.44
2023-05-20T22:52:26.195Z,102569.72
2023-05-20T22:54:54.575Z,102559.94
2023-05-20T22:57:22.997Z,102574.13
2023-05-20T22:59:52.333Z,102572.34
2023-05-20T23:02:23.579Z,102569.69
2023-05-20T23:04:52.123Z,102557.31
2023-05-20T23:07:20.675Z,102569.69
2023-05-20T23:09:49.184Z,102573.22
2023-05-20T23:12:18.061Z,102576.78
2023-05-20T23:14:46.503Z,102563.50
2023-05-20T23:17:14.728Z,102578.56
2023-05-20T23:19:44.317Z,102575.00
2023-05-20T23:22:12.432Z,102560.81
2023-05-20T23:24:40.940Z,102582.06
2023-05-20T23:27:09.476Z,102586.50
2023-05-20T23:29:38.390Z,102588.28
2023-05-20T23:32:07.131Z,102582.06
2023-05-20T23:34:35.624Z,102585.63
2023-05-20T23:37:05.525Z,102588.25
2023-05-20T23:39:33.680Z,102586.47
2023-05-20T23:42:02.655Z,102569.63
2023-05-20T23:44:31.089Z,102590.03
2023-05-20T23:47:01.605Z,102596.25
2023-05-20T23:49:30.104Z,102592.69
2023-05-20T23:51:58.218Z,102587.38
2023-05-20T23:54:28.114Z,102583.84
2023-05-20T23:56:56.824Z,102566.13
2023-05-20T23:59:25.205Z,102582.13
